createdAt,value
2019-04-04T00:01:26.651Z,70.16
2019-04-04T00:03:56.431Z,70.22
2019-04-04T00:06:27.012Z,70.13
2019-04-04T00:08:57.365Z,70.21
2019-04-04T00:11:26.969Z,70.10
2019-04-04T00:13:56.772Z,69.92
2019-04-04T00:16:26.777Z,69.92
2019-04-04T00:18:58.442Z,69.59
2019-04-04T00:21:28.105Z,69.37
2019-04-04T00:23:58.248Z,69.17
2019-04-04T00:26:28.017Z,69.23
2019-04-04T00:28:57.590Z,69.37
2019-04-04T00:31:27.250Z,69.17
2019-04-04T00:33:56.913Z,68.90
2019-04-04T00:36:26.565Z,69.16
2019-04-04T00:38:56.223Z,69.33
2019-04-04T00:41:25.864Z,69.58
2019-04-04T00:43:55.423Z,71.47
2019-04-04T00:46:25.056Z,72.42
2019-04-04T00:48:54.691Z,72.74
2019-04-04T00:51:24.356Z,73.15
2019-04-04T00:53:53.984Z,73.09
2019-04-04T00:56:23.551Z,72.82
2019-04-04T00:58:53.121Z,73.43
2019-04-04T01:01:26.029Z,73.74
2019-04-04T01:03:54.190Z,72.46
2019-04-04T01:06:23.841Z,71.93
2019-04-04T01:08:53.295Z,72.34
2019-04-04T01:11:22.936Z,71.88
2019-04-04T01:13:52.617Z,71.00
2019-04-04T01:16:22.290Z,71.34
2019-04-04T01:18:52.052Z,71.32
2019-04-04T01:21:22.287Z,70.51
2019-04-04T01:23:52.593Z,70.70
2019-04-04T01:26:22.364Z,71.62
2019-04-04T01:28:52.009Z,71.30
2019-04-04T01:31:21.669Z,70.95
2019-04-04T01:33:51.806Z,71.00
2019-04-04T01:36:23.155Z,71.12
2019-04-04T01:38:52.784Z,71.74
2019-04-04T01:41:22.435Z,72.05
2019-04-04T01:44:04.356Z,72.30
2019-04-04T01:46:23.409Z,72.30
2019-04-04T01:48:53.181Z,71.83
2019-04-04T01:51:23.225Z,71.33
2019-04-04T01:53:54.251Z,71.00
2019-04-04T01:56:23.901Z,70.93
2019-04-04T01:58:53.460Z,71.07
2019-04-04T02:01:23.180Z,71.16
2019-04-04T02:03:53.677Z,71.19
2019-04-04T02:06:23.934Z,72.44
2019-04-04T02:08:53.545Z,75.38
2019-04-04T02:11:23.386Z,75.21
2019-04-04T02:13:53.127Z,74.44
2019-04-04T02:16:22.703Z,74.20
2019-04-04T02:18:53.890Z,74.41
2019-04-04T02:21:23.631Z,75.68
2019-04-04T02:23:53.343Z,76.10
2019-04-04T02:26:23.017Z,75.08
2019-04-04T02:28:52.700Z,73.53
2019-04-04T02:31:22.823Z,72.43
2019-04-04T02:33:52.417Z,71.41
2019-04-04T02:36:22.073Z,71.18
2019-04-04T02:39:16.691Z,71.14
2019-04-04T02:41:48.169Z,71.40
2019-04-04T02:44:17.586Z,71.20
2019-04-04T02:46:47.254Z,70.71
2019-04-04T02:49:16.913Z,69.84
2019-04-04T02:51:46.576Z,70.02
2019-04-04T02:54:16.216Z,70.07
2019-04-04T02:56:45.862Z,69.68
2019-04-04T02:59:20.235Z,71.36
2019-04-04T03:01:46.788Z,74.67
2019-04-04T03:04:16.349Z,77.14
2019-04-04T03:06:46.138Z,79.47
2019-04-04T03:09:15.706Z,81.14
2019-04-04T03:11:45.342Z,82.51
2019-04-04T03:14:15.011Z,82.83
2019-04-04T03:16:44.648Z,81.74
2019-04-04T03:19:14.241Z,79.14
2019-04-04T03:21:43.854Z,77.29
2019-04-04T03:24:13.452Z,76.32
2019-04-04T03:26:43.120Z,74.68
2019-04-04T03:29:12.768Z,73.59
2019-04-04T03:31:42.430Z,72.86
2019-04-04T03:34:12.998Z,72.51
2019-04-04T03:36:42.978Z,72.09
2019-04-04T03:39:12.503Z,71.56
2019-04-04T03:41:42.192Z,71.43
2019-04-04T03:44:11.874Z,71.35
2019-04-04T03:46:41.557Z,71.03
2019-04-04T03:49:11.167Z,71.07
2019-04-04T03:51:59.720Z,70.73
2019-04-04T03:54:29.091Z,70.61
2019-04-04T03:56:58.466Z,70.77
2019-04-04T03:59:31.899Z,70.86
2019-04-04T04:01:58.944Z,70.79
2019-04-04T04:04:28.492Z,71.13
2019-04-04T04:06:57.973Z,71.15
2019-04-04T04:09:27.434Z,70.89
2019-04-04T04:11:56.826Z,70.90
2019-04-04T04:14:26.202Z,70.72
2019-04-04T04:16:55.615Z,70.58
2019-04-04T04:19:29.906Z,70.32
2019-04-04T04:21:56.052Z,70.53
2019-04-04T04:24:26.730Z,70.55
2019-04-04T04:26:56.575Z,70.82
2019-04-04T04:29:29.362Z,71.03
2019-04-04T04:31:57.054Z,70.74
2019-04-04T04:34:26.470Z,70.48
2019-04-04T04:36:55.818Z,70.40
2019-04-04T04:39:25.215Z,70.29
2019-04-04T04:41:54.592Z,70.26
2019-04-04T04:44:24.038Z,69.99
2019-04-04T04:46:53.414Z,69.97
2019-04-04T04:49:23.457Z,69.80
2019-04-04T04:51:52.950Z,69.58
2019-04-04T04:54:22.896Z,69.47
2019-04-04T04:56:52.882Z,69.28
2019-04-04T04:59:22.339Z,68.89
2019-04-04T05:01:51.739Z,68.92
2019-04-04T05:04:21.132Z,68.82
2019-04-04T05:06:50.701Z,68.81
2019-04-04T05:09:20.143Z,68.85
2019-04-04T05:11:50.271Z,69.23
2019-04-04T05:14:20.379Z,68.93
2019-04-04T05:16:49.867Z,68.86
2019-04-04T05:19:19.705Z,69.06
2019-04-04T05:21:49.171Z,69.15
2019-04-04T05:24:18.783Z,69.54
2019-04-04T05:26:48.219Z,69.85
2019-04-04T05:29:17.675Z,69.55
2019-04-04T05:31:49.873Z,69.60
2019-04-04T05:34:18.170Z,69.50
2019-04-04T05:36:47.529Z,69.69
2019-04-04T05:39:18.016Z,69.66
2019-04-04T05:41:48.075Z,70.01
2019-04-04T05:44:17.553Z,69.76
2019-04-04T05:46:46.918Z,70.12
2019-04-04T05:49:16.356Z,69.83
2019-04-04T05:51:46.378Z,69.81
2019-04-04T05:54:16.882Z,69.17
2019-04-04T05:56:48.595Z,69.28
2019-04-04T05:59:17.442Z,69.30
2019-04-04T06:01:46.824Z,69.86
2019-04-04T06:04:17.229Z,69.90
2019-04-04T06:06:47.375Z,69.64
2019-04-04T06:09:16.790Z,69.59
2019-04-04T06:11:48.541Z,69.25
2019-04-04T06:14:20.402Z,69.19
2019-04-04T06:16:48.452Z,70.15
2019-04-04T06:19:17.855Z,70.58
2019-04-04T06:21:47.898Z,70.40
2019-04-04T06:24:18.413Z,70.91
2019-04-04T06:26:47.816Z,69.76
2019-04-04T06:29:17.972Z,70.05
2019-04-04T06:31:47.391Z,69.83
2019-04-04T06:34:16.818Z,70.01
2019-04-04T06:36:47.048Z,69.75
2019-04-04T06:39:17.330Z,69.79
2019-04-04T06:41:46.695Z,70.48
2019-04-04T06:44:17.291Z,71.17
2019-04-04T06:46:46.993Z,70.78
2019-04-04T06:49:16.944Z,70.40
2019-04-04T06:51:47.254Z,70.48
2019-04-04T06:54:17.202Z,71.03
2019-04-04T06:56:47.401Z,71.04
2019-04-04T06:59:16.807Z,68.68
2019-04-04T07:01:46.329Z,68.72
2019-04-04T07:04:17.376Z,70.46
2019-04-04T07:06:47.380Z,70.85
2019-04-04T07:09:19.039Z,70.14
2019-04-04T07:11:48.435Z,69.26
2019-04-04T07:14:17.874Z,68.93
2019-04-04T07:16:47.235Z,70.25
2019-04-04T07:19:16.843Z,70.80
2019-04-04T07:21:46.243Z,71.11
2019-04-04T07:24:15.718Z,71.39
2019-04-04T07:26:45.497Z,70.14
2019-04-04T07:29:15.501Z,69.40
2019-04-04T07:31:44.964Z,69.39
2019-04-04T07:34:14.345Z,70.16
2019-04-04T07:36:43.772Z,70.58
2019-04-04T07:39:13.187Z,70.38
2019-04-04T07:41:44.927Z,68.03
2019-04-04T07:44:13.693Z,69.53
2019-04-04T07:46:45.632Z,70.04
2019-04-04T07:49:14.222Z,69.78
2019-04-04T07:51:43.648Z,68.87
2019-04-04T07:54:12.994Z,69.52
2019-04-04T07:56:43.080Z,70.23
2019-04-04T07:59:13.581Z,70.14
2019-04-04T08:01:50.932Z,69.45
2019-04-04T08:04:16.322Z,69.76
2019-04-04T08:06:45.709Z,69.66
2019-04-04T08:09:15.118Z,70.02
2019-04-04T08:11:45.409Z,70.15
2019-04-04T08:14:14.772Z,69.34
2019-04-04T08:16:44.164Z,68.16
2019-04-04T08:19:13.610Z,68.73
2019-04-04T08:21:43.054Z,69.13
2019-04-04T08:24:12.489Z,68.24
2019-04-04T08:26:41.899Z,69.09
2019-04-04T08:29:11.306Z,69.30
2019-04-04T08:31:40.683Z,69.42
2019-04-04T08:34:10.074Z,68.10
2019-04-04T08:36:39.422Z,68.34
2019-04-04T08:39:11.731Z,69.02
2019-04-04T08:41:41.092Z,69.56
2019-04-04T08:44:10.503Z,69.53
2019-04-04T08:46:39.988Z,69.47
2019-04-04T08:49:09.406Z,69.09
2019-04-04T08:51:38.795Z,68.01
2019-04-04T08:54:08.647Z,68.16
2019-04-04T08:56:38.021Z,67.90
2019-04-04T08:59:07.427Z,66.10
2019-04-04T09:01:36.837Z,66.40
2019-04-04T09:04:06.264Z,68.01
2019-04-04T09:06:35.637Z,66.32
2019-04-04T09:09:06.899Z,67.55
2019-04-04T09:11:36.272Z,67.98
2019-04-04T09:14:05.678Z,68.75
2019-04-04T09:16:35.036Z,68.12
2019-04-04T09:19:04.479Z,66.28
2019-04-04T09:21:35.145Z,66.90
2019-04-04T09:24:04.561Z,66.18
2019-04-04T09:26:33.921Z,66.84
2019-04-04T09:29:03.384Z,66.59
2019-04-04T09:31:32.900Z,66.90
2019-04-04T09:34:02.336Z,65.65
2019-04-04T09:36:31.706Z,64.01
2019-04-04T09:39:01.169Z,64.70
2019-04-04T09:41:30.511Z,65.12
2019-04-04T09:43:59.938Z,66.40
2019-04-04T09:46:29.361Z,65.34
2019-04-04T09:48:58.716Z,65.42
2019-04-04T09:51:28.141Z,64.97
2019-04-04T09:53:57.715Z,66.20
2019-04-04T09:56:27.470Z,66.75
2019-04-04T09:58:57.035Z,66.50
2019-04-04T10:01:26.723Z,66.79
2019-04-04T10:03:56.370Z,66.56
2019-04-04T10:06:26.057Z,66.60
2019-04-04T10:08:55.807Z,66.13
2019-04-04T10:11:25.566Z,65.59
2019-04-04T10:13:55.175Z,66.81
2019-04-04T10:16:24.880Z,67.01
2019-04-04T10:18:54.565Z,66.88
2019-04-04T10:21:24.156Z,67.38
2019-04-04T10:23:53.770Z,67.21
2019-04-04T10:26:23.401Z,67.10
2019-04-04T10:28:53.609Z,65.84
2019-04-04T10:31:23.317Z,66.15
2019-04-04T10:33:52.941Z,65.55
2019-04-04T10:36:22.653Z,64.43
2019-04-04T10:38:52.118Z,63.31
2019-04-04T10:41:21.778Z,63.52
2019-04-04T10:43:51.330Z,63.54
2019-04-04T10:46:21.095Z,63.39
2019-04-04T10:48:51.030Z,61.57
2019-04-04T10:51:20.808Z,62.22
2019-04-04T10:53:50.550Z,60.38
2019-04-04T10:56:20.986Z,61.32
2019-04-04T10:58:50.610Z,62.51
2019-04-04T11:01:20.338Z,62.85
2019-04-04T11:03:50.017Z,62.69
2019-04-04T11:06:19.697Z,61.72
2019-04-04T11:08:49.568Z,61.57
2019-04-04T11:11:19.216Z,63.05
2019-04-04T11:13:48.773Z,62.40
2019-04-04T11:16:29.484Z,61.12
2019-04-04T11:18:49.935Z,60.87
2019-04-04T11:21:19.558Z,60.36
2019-04-04T11:23:49.364Z,60.69
2019-04-04T11:26:19.064Z,59.57
2019-04-04T11:28:49.011Z,60.02
2019-04-04T11:31:18.672Z,59.30
2019-04-04T11:33:49.504Z,58.61
2019-04-04T11:36:18.946Z,58.74
2019-04-04T11:38:48.683Z,59.44
2019-04-04T11:41:18.330Z,59.07
2019-04-04T11:43:47.979Z,58.37
2019-04-04T11:46:17.661Z,58.60
2019-04-04T11:48:47.225Z,58.04
2019-04-04T11:51:16.992Z,58.38
2019-04-04T11:53:46.757Z,58.36
2019-04-04T11:56:16.430Z,58.64
2019-04-04T11:58:46.072Z,58.47
2019-04-04T12:01:16.148Z,58.53
2019-04-04T12:03:45.912Z,58.75
2019-04-04T12:06:15.565Z,58.55
2019-04-04T12:08:45.116Z,59.82
2019-04-04T12:11:14.875Z,59.50
2019-04-04T12:13:44.532Z,59.19
2019-04-04T12:16:14.208Z,58.90
2019-04-04T12:18:43.947Z,60.13
2019-04-04T12:21:13.621Z,59.97
2019-04-04T12:23:43.293Z,58.46
2019-04-04T12:26:12.947Z,60.24
2019-04-04T12:28:42.594Z,59.12
2019-04-04T12:31:12.242Z,60.08
2019-04-04T12:33:42.008Z,60.31
2019-04-04T12:36:23.790Z,59.54
2019-04-04T12:38:43.171Z,59.58
2019-04-04T12:41:12.829Z,59.23
2019-04-04T12:43:42.506Z,59.43
2019-04-04T12:46:12.027Z,59.15
2019-04-04T12:48:41.695Z,57.91
2019-04-04T12:51:11.590Z,58.30
2019-04-04T12:53:41.349Z,57.67
2019-04-04T12:56:10.987Z,58.77
2019-04-04T12:58:40.600Z,60.09
2019-04-04T13:01:10.356Z,60.34
2019-04-04T13:03:39.828Z,59.73
2019-04-04T13:06:09.434Z,60.17
2019-04-04T13:08:38.934Z,59.56
2019-04-04T13:11:08.546Z,59.14
2019-04-04T13:13:38.448Z,59.32
2019-04-04T13:16:08.111Z,59.04
2019-04-04T13:18:37.773Z,59.06
2019-04-04T13:21:09.386Z,58.25
2019-04-04T13:23:39.521Z,58.30
2019-04-04T13:26:09.978Z,57.66
2019-04-04T13:28:40.273Z,58.60
2019-04-04T13:31:10.483Z,59.37
2019-04-04T13:33:40.780Z,58.51
2019-04-04T13:36:11.019Z,58.29
2019-04-04T13:38:41.311Z,58.69
2019-04-04T13:41:21.339Z,58.39
2019-04-04T13:43:42.354Z,59.43
2019-04-04T13:46:12.000Z,59.14
2019-04-04T13:48:43.536Z,58.21
2019-04-04T13:51:13.155Z,56.04
2019-04-04T13:53:42.817Z,55.96
2019-04-04T13:56:12.463Z,55.62
2019-04-04T13:58:42.021Z,56.08
2019-04-04T14:01:11.691Z,55.97
2019-04-04T14:03:41.475Z,57.01
2019-04-04T14:06:11.116Z,56.81
2019-04-04T14:08:40.897Z,57.73
2019-04-04T14:11:10.528Z,58.60
2019-04-04T14:13:40.222Z,59.03
2019-04-04T14:16:09.794Z,59.00
2019-04-04T14:18:40.307Z,58.47
2019-04-04T14:21:11.215Z,58.32
2019-04-04T14:23:41.058Z,57.49
2019-04-04T14:26:10.811Z,56.63
2019-04-04T14:28:40.556Z,57.17
2019-04-04T14:31:10.396Z,56.93
2019-04-04T14:33:40.055Z,55.62
2019-04-04T14:36:09.527Z,56.58
2019-04-04T14:38:39.204Z,55.89
2019-04-04T14:41:11.674Z,54.49
2019-04-04T14:43:41.239Z,53.76
2019-04-04T14:46:10.862Z,54.53
2019-04-04T14:48:42.937Z,54.75
2019-04-04T14:51:11.866Z,55.90
2019-04-04T14:53:41.714Z,54.33
2019-04-04T14:56:11.676Z,53.23
2019-04-04T14:58:41.542Z,53.51
2019-04-04T15:01:11.214Z,52.15
2019-04-04T15:03:42.218Z,53.00
2019-04-04T15:06:12.105Z,52.99
2019-04-04T15:08:41.739Z,53.70
2019-04-04T15:11:23.491Z,52.69
2019-04-04T15:13:42.771Z,52.18
2019-04-04T15:16:16.290Z,51.65
2019-04-04T15:18:45.924Z,50.58
2019-04-04T15:21:15.482Z,49.15
2019-04-04T15:23:45.136Z,48.73
2019-04-04T15:26:15.663Z,49.48
2019-04-04T15:28:45.436Z,51.15
2019-04-04T15:31:15.023Z,51.89
2019-04-04T15:33:44.970Z,52.93
2019-04-04T15:36:14.547Z,54.65
2019-04-04T15:38:44.251Z,55.21
2019-04-04T15:41:13.873Z,55.00
2019-04-04T15:43:43.564Z,55.97
2019-04-04T15:46:13.163Z,56.18
2019-04-04T15:48:42.870Z,55.82
2019-04-04T15:51:12.520Z,55.03
2019-04-04T15:53:42.125Z,55.39
2019-04-04T15:56:11.881Z,54.96
2019-04-04T15:58:41.447Z,54.59
2019-04-04T16:01:11.073Z,55.26
2019-04-04T16:03:40.742Z,55.82
2019-04-04T16:06:10.520Z,55.25
2019-04-04T16:08:40.118Z,55.41
2019-04-04T16:11:09.803Z,55.16
2019-04-04T16:13:39.499Z,55.05
2019-04-04T16:16:09.828Z,55.03
2019-04-04T16:18:39.811Z,54.83
2019-04-04T16:21:09.520Z,54.56
2019-04-04T16:23:39.241Z,54.59
2019-04-04T16:26:09.002Z,54.97
2019-04-04T16:28:38.927Z,55.63
2019-04-04T16:31:08.543Z,55.80
2019-04-04T16:33:38.011Z,55.79
2019-04-04T16:36:07.755Z,55.73
2019-04-04T16:38:37.740Z,55.89
2019-04-04T16:41:07.382Z,56.06
2019-04-04T16:43:36.934Z,55.52
2019-04-04T16:46:06.619Z,56.16
2019-04-04T16:48:36.265Z,55.93
2019-04-04T16:51:05.920Z,55.77
2019-04-04T16:53:35.555Z,56.21
2019-04-04T16:56:05.234Z,55.99
2019-04-04T16:58:36.987Z,55.98
2019-04-04T17:01:06.205Z,55.36
2019-04-04T17:03:35.748Z,55.70
2019-04-04T17:06:06.435Z,55.82
2019-04-04T17:08:36.026Z,55.12
2019-04-04T17:11:05.755Z,54.93
2019-04-04T17:13:35.375Z,55.08
2019-04-04T17:16:05.371Z,55.56
2019-04-04T17:18:35.560Z,56.03
2019-04-04T17:21:05.286Z,56.74
2019-04-04T17:23:34.851Z,56.87
2019-04-04T17:26:04.871Z,56.26
2019-04-04T17:28:35.315Z,57.08
2019-04-04T17:31:07.577Z,56.90
2019-04-04T17:33:37.957Z,56.66
2019-04-04T17:36:07.640Z,56.23
2019-04-04T17:38:37.107Z,55.49
2019-04-04T17:41:06.910Z,55.93
2019-04-04T17:43:36.813Z,56.20
2019-04-04T17:46:06.948Z,56.41
2019-04-04T17:48:37.113Z,56.47
2019-04-04T17:51:07.105Z,56.45
2019-04-04T17:53:36.783Z,56.81
2019-04-04T17:56:06.429Z,57.19
2019-04-04T17:58:36.114Z,57.20
2019-04-04T18:01:07.327Z,57.22
2019-04-04T18:03:37.023Z,57.44
2019-04-04T18:06:06.570Z,57.74
2019-04-04T18:08:36.257Z,58.15
2019-04-04T18:11:05.820Z,57.96
2019-04-04T18:13:35.441Z,58.18
2019-04-04T18:16:05.026Z,58.36
2019-04-04T18:18:34.651Z,58.19
2019-04-04T18:21:04.571Z,58.35
2019-04-04T18:23:34.182Z,59.06
2019-04-04T18:26:03.885Z,59.50
2019-04-04T18:28:33.532Z,59.69
2019-04-04T18:31:03.310Z,59.83
2019-04-04T18:33:33.398Z,59.85
2019-04-04T18:36:03.569Z,59.98
2019-04-04T18:38:33.267Z,60.21
2019-04-04T18:41:03.502Z,60.08
2019-04-04T18:43:33.123Z,59.71
2019-04-04T18:46:02.692Z,59.61
2019-04-04T18:48:32.624Z,59.76
2019-04-04T18:51:02.391Z,60.14
2019-04-04T18:53:32.032Z,60.20
2019-04-04T18:56:01.619Z,60.23
2019-04-04T18:58:31.380Z,60.19
2019-04-04T19:01:00.941Z,60.06
2019-04-04T19:03:30.711Z,60.10
2019-04-04T19:06:00.366Z,59.88
2019-04-04T19:08:30.834Z,59.97
2019-04-04T19:11:00.602Z,60.06
2019-04-04T19:13:38.520Z,60.09
2019-04-04T19:16:02.290Z,59.90
2019-04-04T19:18:33.042Z,59.81
2019-04-04T19:21:02.783Z,59.76
2019-04-04T19:23:32.431Z,59.85
2019-04-04T19:26:02.084Z,60.23
2019-04-04T19:28:31.960Z,60.52
2019-04-04T19:31:01.650Z,60.41
2019-04-04T19:33:31.262Z,60.29
2019-04-04T19:36:00.720Z,60.58
2019-04-04T19:38:30.363Z,60.74
2019-04-04T19:41:00.342Z,60.90
2019-04-04T19:43:29.908Z,61.28
2019-04-04T19:45:59.545Z,61.50
2019-04-04T19:48:29.192Z,61.37
2019-04-04T19:50:58.892Z,61.48
2019-04-04T19:53:28.563Z,61.52
2019-04-04T19:55:58.194Z,61.50
2019-04-04T19:58:27.857Z,61.57
2019-04-04T20:00:57.602Z,61.63
2019-04-04T20:03:27.284Z,61.56
2019-04-04T20:05:57.168Z,61.63
2019-04-04T20:08:26.801Z,61.53
2019-04-04T20:10:56.464Z,61.29
2019-04-04T20:13:31.007Z,61.30
2019-04-04T20:15:57.726Z,61.14
2019-04-04T20:18:28.206Z,61.53
2019-04-04T20:20:57.840Z,61.65
2019-04-04T20:23:27.442Z,61.63
2019-04-04T20:25:57.192Z,61.21
2019-04-04T20:28:26.844Z,61.05
2019-04-04T20:30:56.394Z,61.34
2019-04-04T20:33:26.148Z,61.87
2019-04-04T20:35:55.726Z,63.14
2019-04-04T20:38:25.808Z,63.29
2019-04-04T20:40:55.914Z,63.49
2019-04-04T20:43:25.609Z,63.53
2019-04-04T20:45:55.318Z,63.20
2019-04-04T20:48:25.147Z,63.05
2019-04-04T20:50:54.691Z,62.98
2019-04-04T20:53:24.244Z,62.85
2019-04-04T20:55:53.901Z,62.74
2019-04-04T20:58:23.334Z,62.67
2019-04-04T21:00:53.102Z,62.61
2019-04-04T21:03:23.459Z,62.48
2019-04-04T21:05:53.151Z,62.59
2019-04-04T21:08:22.820Z,62.58
2019-04-04T21:10:52.380Z,62.48
2019-04-04T21:13:22.000Z,62.37
2019-04-04T21:15:51.775Z,62.23
2019-04-04T21:18:21.456Z,62.13
2019-04-04T21:20:51.300Z,62.47
2019-04-04T21:23:20.998Z,62.51
2019-04-04T21:25:50.526Z,62.41
2019-04-04T21:28:20.062Z,62.40
2019-04-04T21:30:50.591Z,61.89
2019-04-04T21:33:20.335Z,62.30
2019-04-04T21:35:49.991Z,62.61
2019-04-04T21:38:19.555Z,62.55
2019-04-04T21:40:49.183Z,62.53
2019-04-04T21:43:18.777Z,62.19
2019-04-04T21:45:48.313Z,62.40
2019-04-04T21:48:17.975Z,62.59
2019-04-04T21:50:47.637Z,62.78
2019-04-04T21:53:17.301Z,62.85
2019-04-04T21:55:46.863Z,62.78
2019-04-04T21:58:16.495Z,62.95
2019-04-04T22:00:46.706Z,62.91
2019-04-04T22:03:16.628Z,62.75
2019-04-04T22:05:46.211Z,62.74
2019-04-04T22:08:15.830Z,62.67
2019-04-04T22:10:45.404Z,62.79
2019-04-04T22:13:14.925Z,62.82
2019-04-04T22:15:44.979Z,63.00
2019-04-04T22:18:14.604Z,63.26
2019-04-04T22:20:44.076Z,63.25
2019-04-04T22:23:13.724Z,63.21
2019-04-04T22:25:43.447Z,62.98
2019-04-04T22:28:13.271Z,63.18
2019-04-04T22:30:43.246Z,63.24
2019-04-04T22:33:12.763Z,63.62
2019-04-04T22:35:42.262Z,63.44
2019-04-04T22:38:12.030Z,63.65
2019-04-04T22:40:41.689Z,63.79
2019-04-04T22:43:11.435Z,63.87
2019-04-04T22:45:40.974Z,63.73
2019-04-04T22:48:10.655Z,63.78
2019-04-04T22:50:40.049Z,63.66
2019-04-04T22:53:09.419Z,63.43
2019-04-04T22:55:38.771Z,63.28
2019-04-04T22:58:08.311Z,62.92
2019-04-04T23:00:37.658Z,62.54
2019-04-04T23:03:07.583Z,63.02
2019-04-04T23:05:36.961Z,62.97
2019-04-04T23:08:07.598Z,63.02
2019-04-04T23:10:37.201Z,62.92
2019-04-04T23:13:06.632Z,62.87
2019-04-04T23:15:36.035Z,62.85
2019-04-04T23:18:05.479Z,62.76
2019-04-04T23:20:34.835Z,62.59
2019-04-04T23:23:04.351Z,62.79
2019-04-04T23:25:33.731Z,62.85
2019-04-04T23:28:03.146Z,63.12
2019-04-04T23:30:32.522Z,63.38
2019-04-04T23:33:01.930Z,64.22
2019-04-04T23:35:31.300Z,64.55
2019-04-04T23:38:00.781Z,64.45
2019-04-04T23:40:30.166Z,64.35
2019-04-04T23:42:59.549Z,64.19
2019-04-04T23:45:28.960Z,64.09
2019-04-04T23:47:58.397Z,64.17
2019-04-04T23:50:27.749Z,64.24
2019-04-04T23:52:57.144Z,64.33
2019-04-04T23:55:26.515Z,64.47
2019-04-04T23:57:55.913Z,64.41
